sensor_id;sensor_type;location;lat;lon;timestamp;P1;durP1;ratioP1;P2;durP2;ratioP2
11839;SDS011;5979;50.800;4.904;2024-03-02T00:02:04;1.88;;;0.40;;
11839;SDS011;5979;50.800;4.904;2024-03-02T00:04:31;1.23;;;0.50;;
11839;SDS011;5979;50.800;4.904;2024-03-02T00:06:57;1.85;;;0.45;;
11839;SDS011;5979;50.800;4.904;2024-03-02T00:09:23;0.50;;;0.50;;
11839;SDS011;5979;50.800;4.904;2024-03-02T00:11:49;1.85;;;0.65;;
11839;SDS011;5979;50.800;4.904;2024-03-02T00:14:16;0.65;;;0.35;;
11839;SDS011;5979;50.800;4.904;2024-03-02T00:16:41;0.50;;;0.50;;
11839;SDS011;5979;50.800;4.904;2024-03-02T00:19:08;0.55;;;0.40;;
11839;SDS011;5979;50.800;4.904;2024-03-02T00:21:38;0.55;;;0.50;;
11839;SDS011;5979;50.800;4.904;2024-03-02T00:24:28;1.05;;;0.68;;
11839;SDS011;5979;50.800;4.904;2024-03-02T00:26:56;0.60;;;0.60;;
11839;SDS011;5979;50.800;4.904;2024-03-02T00:29:22;0.60;;;0.50;;
11839;SDS011;5979;50.800;4.904;2024-03-02T00:31:48;0.68;;;0.68;;
11839;SDS011;5979;50.800;4.904;2024-03-02T00:34:13;0.70;;;0.70;;
11839;SDS011;5979;50.800;4.904;2024-03-02T00:36:41;0.60;;;0.50;;
11839;SDS011;5979;50.800;4.904;2024-03-02T00:39:07;0.50;;;0.50;;
11839;SDS011;5979;50.800;4.904;2024-03-02T00:41:33;0.47;;;0.47;;
11839;SDS011;5979;50.800;4.904;2024-03-02T00:46:29;0.63;;;0.40;;
11839;SDS011;5979;50.800;4.904;2024-03-02T00:48:59;1.00;;;0.65;;
11839;SDS011;5979;50.800;4.904;2024-03-02T00:51:27;1.02;;;0.40;;
11839;SDS011;5979;50.800;4.904;2024-03-02T00:53:59;0.40;;;0.40;;
11839;SDS011;5979;50.800;4.904;2024-03-02T00:56:25;0.40;;;0.40;;
11839;SDS011;5979;50.800;4.904;2024-03-02T00:58:51;0.40;;;0.40;;
11839;SDS011;5979;50.800;4.904;2024-03-02T01:01:18;0.40;;;0.40;;
11839;SDS011;5979;50.800;4.904;2024-03-02T01:03:44;1.92;;;0.73;;
11839;SDS011;5979;50.800;4.904;2024-03-02T01:06:10;0.65;;;0.50;;
11839;SDS011;5979;50.800;4.904;2024-03-02T01:08:36;0.65;;;0.65;;
11839;SDS011;5979;50.800;4.904;2024-03-02T01:11:03;1.08;;;0.50;;
11839;SDS011;5979;50.800;4.904;2024-03-02T01:13:30;1.45;;;0.43;;
11839;SDS011;5979;50.800;4.904;2024-03-02T01:15:56;0.25;;;0.25;;
11839;SDS011;5979;50.800;4.904;2024-03-02T01:18:22;0.95;;;0.60;;
11839;SDS011;5979;50.800;4.904;2024-03-02T01:20:48;1.17;;;0.47;;
11839;SDS011;5979;50.800;4.904;2024-03-02T01:23:17;1.10;;;0.38;;
11839;SDS011;5979;50.800;4.904;2024-03-02T01:25:47;1.10;;;0.47;;
11839;SDS011;5979;50.800;4.904;2024-03-02T01:28:13;0.70;;;0.70;;
11839;SDS011;5979;50.800;4.904;2024-03-02T01:30:39;0.98;;;0.47;;
11839;SDS011;5979;50.800;4.904;2024-03-02T01:33:04;0.30;;;0.30;;
11839;SDS011;5979;50.800;4.904;2024-03-02T01:35:30;0.30;;;0.30;;
11839;SDS011;5979;50.800;4.904;2024-03-02T01:37:57;0.32;;;0.30;;
11839;SDS011;5979;50.800;4.904;2024-03-02T01:40:22;0.68;;;0.68;;
11839;SDS011;5979;50.800;4.904;2024-03-02T01:42:51;0.20;;;0.20;;
11839;SDS011;5979;50.800;4.904;2024-03-02T01:45:19;2.13;;;0.60;;
11839;SDS011;5979;50.800;4.904;2024-03-02T01:47:44;0.93;;;0.20;;
11839;SDS011;5979;50.800;4.904;2024-03-02T01:50:13;0.20;;;0.20;;
11839;SDS011;5979;50.800;4.904;2024-03-02T01:52:39;0.50;;;0.50;;
11839;SDS011;5979;50.800;4.904;2024-03-02T01:55:05;0.35;;;0.35;;
11839;SDS011;5979;50.800;4.904;2024-03-02T01:57:32;1.20;;;0.30;;
11839;SDS011;5979;50.800;4.904;2024-03-02T01:59:59;0.17;;;0.17;;
11839;SDS011;5979;50.800;4.904;2024-03-02T02:02:25;0.40;;;0.40;;
11839;SDS011;5979;50.800;4.904;2024-03-02T02:04:51;0.70;;;0.40;;
11839;SDS011;5979;50.800;4.904;2024-03-02T02:07:17;0.20;;;0.20;;
11839;SDS011;5979;50.800;4.904;2024-03-02T02:09:43;0.20;;;0.20;;
11839;SDS011;5979;50.800;4.904;2024-03-02T02:12:09;0.40;;;0.40;;
11839;SDS011;5979;50.800;4.904;2024-03-02T02:14:35;0.30;;;0.30;;
11839;SDS011;5979;50.800;4.904;2024-03-02T02:17:01;0.68;;;0.30;;
11839;SDS011;5979;50.800;4.904;2024-03-02T02:19:27;0.47;;;0.32;;
11839;SDS011;5979;50.800;4.904;2024-03-02T02:21:53;0.90;;;0.40;;
11839;SDS011;5979;50.800;4.904;2024-03-02T02:24:19;2.03;;;0.60;;
11839;SDS011;5979;50.800;4.904;2024-03-02T02:26:45;1.10;;;0.40;;
11839;SDS011;5979;50.800;4.904;2024-03-02T02:29:10;1.08;;;0.47;;
11839;SDS011;5979;50.800;4.904;2024-03-02T02:31:37;1.90;;;0.52;;
11839;SDS011;5979;50.800;4.904;2024-03-02T02:34:03;0.52;;;0.32;;
11839;SDS011;5979;50.800;4.904;2024-03-02T02:36:29;6.35;;;0.47;;
11839;SDS011;5979;50.800;4.904;2024-03-02T02:38:56;1.45;;;0.57;;
11839;SDS011;5979;50.800;4.904;2024-03-02T02:41:21;0.38;;;0.38;;
11839;SDS011;5979;50.800;4.904;2024-03-02T02:43:47;1.15;;;0.63;;
11839;SDS011;5979;50.800;4.904;2024-03-02T02:46:13;0.60;;;0.50;;
11839;SDS011;5979;50.800;4.904;2024-03-02T02:48:38;0.50;;;0.50;;
11839;SDS011;5979;50.800;4.904;2024-03-02T02:51:04;0.93;;;0.57;;
11839;SDS011;5979;50.800;4.904;2024-03-02T02:53:29;1.80;;;0.52;;
11839;SDS011;5979;50.800;4.904;2024-03-02T02:55:55;0.98;;;0.40;;
11839;SDS011;5979;50.800;4.904;2024-03-02T02:58:21;1.13;;;0.43;;
11839;SDS011;5979;50.800;4.904;2024-03-02T03:00:46;1.08;;;0.47;;
11839;SDS011;5979;50.800;4.904;2024-03-02T03:03:12;1.08;;;0.35;;
11839;SDS011;5979;50.800;4.904;2024-03-02T03:05:37;1.67;;;0.43;;
11839;SDS011;5979;50.800;4.904;2024-03-02T03:08:03;1.08;;;0.47;;
11839;SDS011;5979;50.800;4.904;2024-03-02T03:10:29;0.75;;;0.70;;
11839;SDS011;5979;50.800;4.904;2024-03-02T03:12:54;0.70;;;0.60;;
11839;SDS011;5979;50.800;4.904;2024-03-02T03:15:21;0.50;;;0.50;;
11839;SDS011;5979;50.800;4.904;2024-03-02T03:17:47;1.65;;;0.50;;
11839;SDS011;5979;50.800;4.904;2024-03-02T03:20:12;0.93;;;0.57;;
11839;SDS011;5979;50.800;4.904;2024-03-02T03:22:40;0.50;;;0.50;;
11839;SDS011;5979;50.800;4.904;2024-03-02T03:25:06;1.77;;;0.57;;
11839;SDS011;5979;50.800;4.904;2024-03-02T03:27:34;0.68;;;0.68;;
11839;SDS011;5979;50.800;4.904;2024-03-02T03:30:00;0.60;;;0.60;;
11839;SDS011;5979;50.800;4.904;2024-03-02T03:32:25;0.60;;;0.60;;
11839;SDS011;5979;50.800;4.904;2024-03-02T03:34:51;2.05;;;0.80;;
11839;SDS011;5979;50.800;4.904;2024-03-02T03:37:16;0.50;;;0.50;;
11839;SDS011;5979;50.800;4.904;2024-03-02T03:39:42;0.73;;;0.50;;
11839;SDS011;5979;50.800;4.904;2024-03-02T03:42:08;1.65;;;0.55;;
11839;SDS011;5979;50.800;4.904;2024-03-02T03:44:34;0.80;;;0.45;;
11839;SDS011;5979;50.800;4.904;2024-03-02T03:47:00;0.50;;;0.50;;
11839;SDS011;5979;50.800;4.904;2024-03-02T03:49:27;0.68;;;0.68;;
11839;SDS011;5979;50.800;4.904;2024-03-02T03:51:52;0.40;;;0.40;;
11839;SDS011;5979;50.800;4.904;2024-03-02T03:54:18;2.05;;;0.60;;
11839;SDS011;5979;50.800;4.904;2024-03-02T03:56:44;0.57;;;0.57;;
11839;SDS011;5979;50.800;4.904;2024-03-02T03:59:09;1.23;;;0.65;;
11839;SDS011;5979;50.800;4.904;2024-03-02T04:01:35;0.52;;;0.50;;
11839;SDS011;5979;50.800;4.904;2024-03-02T04:04:01;0.90;;;0.40;;
11839;SDS011;5979;50.800;4.904;2024-03-02T04:06:28;2.63;;;0.80;;
11839;SDS011;5979;50.800;4.904;2024-03-02T04:08:54;1.35;;;0.45;;
11839;SDS011;5979;50.800;4.904;2024-03-02T04:11:20;1.38;;;1.05;;
11839;SDS011;5979;50.800;4.904;2024-03-02T04:13:46;1.45;;;0.50;;
11839;SDS011;5979;50.800;4.904;2024-03-02T04:16:11;2.30;;;0.77;;
11839;SDS011;5979;50.800;4.904;2024-03-02T04:18:37;0.85;;;0.85;;
11839;SDS011;5979;50.800;4.904;2024-03-02T04:21:04;0.52;;;0.50;;
11839;SDS011;5979;50.800;4.904;2024-03-02T04:23:30;0.43;;;0.43;;
11839;SDS011;5979;50.800;4.904;2024-03-02T04:25:55;0.88;;;0.50;;
11839;SDS011;5979;50.800;4.904;2024-03-02T04:28:21;0.60;;;0.40;;
11839;SDS011;5979;50.800;4.904;2024-03-02T04:30:47;0.50;;;0.50;;
11839;SDS011;5979;50.800;4.904;2024-03-02T04:33:12;1.17;;;0.55;;
11839;SDS011;5979;50.800;4.904;2024-03-02T04:35:38;0.43;;;0.43;;
11839;SDS011;5979;50.800;4.904;2024-03-02T04:38:04;0.60;;;0.60;;
11839;SDS011;5979;50.800;4.904;2024-03-02T04:40:29;0.75;;;0.45;;
11839;SDS011;5979;50.800;4.904;2024-03-02T04:42:55;2.25;;;0.90;;
11839;SDS011;5979;50.800;4.904;2024-03-02T04:45:21;1.02;;;0.60;;
11839;SDS011;5979;50.800;4.904;2024-03-02T04:47:46;1.58;;;0.82;;
11839;SDS011;5979;50.800;4.904;2024-03-02T04:50:12;0.85;;;0.45;;
11839;SDS011;5979;50.800;4.904;2024-03-02T04:52:38;0.77;;;0.77;;
11839;SDS011;5979;50.800;4.904;2024-03-02T04:55:04;1.42;;;0.50;;
11839;SDS011;5979;50.800;4.904;2024-03-02T04:57:54;0.55;;;0.55;;
11839;SDS011;5979;50.800;4.904;2024-03-02T05:00:21;1.35;;;1.00;;
11839;SDS011;5979;50.800;4.904;2024-03-02T05:02:46;1.85;;;0.70;;
11839;SDS011;5979;50.800;4.904;2024-03-02T05:05:12;1.23;;;0.60;;
11839;SDS011;5979;50.800;4.904;2024-03-02T05:07:40;0.50;;;0.50;;
11839;SDS011;5979;50.800;4.904;2024-03-02T05:10:07;0.75;;;0.70;;
11839;SDS011;5979;50.800;4.904;2024-03-02T05:12:34;3.25;;;0.65;;
11839;SDS011;5979;50.800;4.904;2024-03-02T05:15:12;0.88;;;0.57;;
11839;SDS011;5979;50.800;4.904;2024-03-02T05:17:39;0.43;;;0.43;;
11839;SDS011;5979;50.800;4.904;2024-03-02T05:20:05;0.70;;;0.70;;
11839;SDS011;5979;50.800;4.904;2024-03-02T05:22:35;2.13;;;0.63;;
11839;SDS011;5979;50.800;4.904;2024-03-02T05:25:01;1.42;;;0.80;;
11839;SDS011;5979;50.800;4.904;2024-03-02T05:27:30;0.63;;;0.63;;
11839;SDS011;5979;50.800;4.904;2024-03-02T05:29:57;5.05;;;1.10;;
11839;SDS011;5979;50.800;4.904;2024-03-02T05:32:24;0.75;;;0.70;;
11839;SDS011;5979;50.800;4.904;2024-03-02T05:34:49;1.55;;;0.68;;
11839;SDS011;5979;50.800;4.904;2024-03-02T05:37:18;1.52;;;0.80;;
11839;SDS011;5979;50.800;4.904;2024-03-02T05:39:44;0.95;;;0.85;;
11839;SDS011;5979;50.800;4.904;2024-03-02T05:42:10;0.90;;;0.57;;
11839;SDS011;5979;50.800;4.904;2024-03-02T05:44:36;1.70;;;0.55;;
11839;SDS011;5979;50.800;4.904;2024-03-02T05:47:02;0.85;;;0.57;;
11839;SDS011;5979;50.800;4.904;2024-03-02T05:49:28;1.25;;;0.95;;
11839;SDS011;5979;50.800;4.904;2024-03-02T05:51:54;2.50;;;0.75;;
11839;SDS011;5979;50.800;4.904;2024-03-02T05:54:20;0.82;;;0.70;;
11839;SDS011;5979;50.800;4.904;2024-03-02T05:56:46;0.70;;;0.70;;
11839;SDS011;5979;50.800;4.904;2024-03-02T05:59:12;0.40;;;0.40;;
11839;SDS011;5979;50.800;4.904;2024-03-02T06:01:47;2.80;;;0.82;;
11839;SDS011;5979;50.800;4.904;2024-03-02T06:04:13;0.60;;;0.60;;
11839;SDS011;5979;50.800;4.904;2024-03-02T06:06:39;1.42;;;0.60;;
11839;SDS011;5979;50.800;4.904;2024-03-02T06:09:06;3.80;;;0.93;;
11839;SDS011;5979;50.800;4.904;2024-03-02T06:11:39;2.58;;;0.80;;
11839;SDS011;5979;50.800;4.904;2024-03-02T06:14:08;2.17;;;1.15;;
11839;SDS011;5979;50.800;4.904;2024-03-02T06:16:34;0.63;;;0.63;;
11839;SDS011;5979;50.800;4.904;2024-03-02T06:19:00;1.13;;;0.68;;
11839;SDS011;5979;50.800;4.904;2024-03-02T06:21:26;1.05;;;1.00;;
11839;SDS011;5979;50.800;4.904;2024-03-02T06:23:52;1.48;;;0.82;;
11839;SDS011;5979;50.800;4.904;2024-03-02T06:26:18;1.27;;;1.02;;
11839;SDS011;5979;50.800;4.904;2024-03-02T06:28:45;2.33;;;1.10;;
11839;SDS011;5979;50.800;4.904;2024-03-02T06:31:11;2.22;;;0.93;;
11839;SDS011;5979;50.800;4.904;2024-03-02T06:33:37;1.55;;;1.05;;
11839;SDS011;5979;50.800;4.904;2024-03-02T06:36:02;2.08;;;0.50;;
11839;SDS011;5979;50.800;4.904;2024-03-02T06:38:28;3.60;;;1.10;;
11839;SDS011;5979;50.800;4.904;2024-03-02T06:40:54;1.02;;;0.70;;
11839;SDS011;5979;50.800;4.904;2024-03-02T06:43:20;1.80;;;0.90;;
11839;SDS011;5979;50.800;4.904;2024-03-02T06:45:52;0.85;;;0.80;;
11839;SDS011;5979;50.800;4.904;2024-03-02T06:48:18;0.73;;;0.73;;
11839;SDS011;5979;50.800;4.904;2024-03-02T06:50:48;0.77;;;0.70;;
11839;SDS011;5979;50.800;4.904;2024-03-02T06:53:14;1.83;;;0.70;;
11839;SDS011;5979;50.800;4.904;2024-03-02T06:55:44;1.20;;;0.90;;
11839;SDS011;5979;50.800;4.904;2024-03-02T06:58:11;0.70;;;0.70;;
11839;SDS011;5979;50.800;4.904;2024-03-02T07:00:42;1.30;;;1.20;;
11839;SDS011;5979;50.800;4.904;2024-03-02T07:03:11;1.52;;;0.88;;
11839;SDS011;5979;50.800;4.904;2024-03-02T07:05:37;1.02;;;0.80;;
11839;SDS011;5979;50.800;4.904;2024-03-02T07:08:02;1.30;;;0.95;;
11839;SDS011;5979;50.800;4.904;2024-03-02T07:10:30;2.60;;;0.90;;
11839;SDS011;5979;50.800;4.904;2024-03-02T07:12:55;1.13;;;0.80;;
11839;SDS011;5979;50.800;4.904;2024-03-02T07:15:21;1.33;;;1.10;;
11839;SDS011;5979;50.800;4.904;2024-03-02T07:17:52;2.00;;;1.10;;
11839;SDS011;5979;50.800;4.904;2024-03-02T07:20:18;0.82;;;0.82;;
11839;SDS011;5979;50.800;4.904;2024-03-02T07:22:44;2.67;;;0.82;;
11839;SDS011;5979;50.800;4.904;2024-03-02T07:25:09;1.65;;;0.95;;
11839;SDS011;5979;50.800;4.904;2024-03-02T07:27:35;1.35;;;1.00;;
11839;SDS011;5979;50.800;4.904;2024-03-02T07:30:02;1.65;;;0.90;;
11839;SDS011;5979;50.800;4.904;2024-03-02T07:32:28;2.30;;;0.80;;
11839;SDS011;5979;50.800;4.904;2024-03-02T07:34:54;2.70;;;1.10;;
11839;SDS011;5979;50.800;4.904;2024-03-02T07:37:20;2.78;;;1.00;;
11839;SDS011;5979;50.800;4.904;2024-03-02T07:39:47;2.70;;;1.10;;
11839;SDS011;5979;50.800;4.904;2024-03-02T07:42:12;1.50;;;1.15;;
11839;SDS011;5979;50.800;4.904;2024-03-02T07:44:38;1.65;;;1.20;;
11839;SDS011;5979;50.800;4.904;2024-03-02T07:47:04;1.65;;;1.40;;
11839;SDS011;5979;50.800;4.904;2024-03-02T07:49:30;2.63;;;0.93;;
11839;SDS011;5979;50.800;4.904;2024-03-02T07:51:55;4.00;;;1.20;;
11839;SDS011;5979;50.800;4.904;2024-03-02T07:54:21;1.60;;;1.20;;
11839;SDS011;5979;50.800;4.904;2024-03-02T07:56:46;2.10;;;1.05;;
11839;SDS011;5979;50.800;4.904;2024-03-02T07:59:12;1.25;;;1.15;;
11839;SDS011;5979;50.800;4.904;2024-03-02T08:01:38;3.47;;;1.08;;
11839;SDS011;5979;50.800;4.904;2024-03-02T08:04:04;3.58;;;1.48;;
11839;SDS011;5979;50.800;4.904;2024-03-02T08:06:30;3.10;;;1.77;;
11839;SDS011;5979;50.800;4.904;2024-03-02T08:08:59;3.22;;;1.88;;
11839;SDS011;5979;50.800;4.904;2024-03-02T08:11:25;3.03;;;1.20;;
11839;SDS011;5979;50.800;4.904;2024-03-02T08:13:56;2.90;;;1.23;;
11839;SDS011;5979;50.800;4.904;2024-03-02T08:16:24;2.63;;;1.33;;
11839;SDS011;5979;50.800;4.904;2024-03-02T08:18:50;2.55;;;1.30;;
11839;SDS011;5979;50.800;4.904;2024-03-02T08:21:16;3.28;;;1.23;;
11839;SDS011;5979;50.800;4.904;2024-03-02T08:23:42;1.90;;;1.20;;
11839;SDS011;5979;50.800;4.904;2024-03-02T08:26:08;1.70;;;1.20;;
11839;SDS011;5979;50.800;4.904;2024-03-02T08:28:35;4.32;;;1.90;;
11839;SDS011;5979;50.800;4.904;2024-03-02T08:31:02;2.33;;;1.10;;
11839;SDS011;5979;50.800;4.904;2024-03-02T08:33:28;6.05;;;1.58;;
11839;SDS011;5979;50.800;4.904;2024-03-02T08:35:54;6.05;;;1.30;;
11839;SDS011;5979;50.800;4.904;2024-03-02T08:38:20;1.42;;;1.10;;
11839;SDS011;5979;50.800;4.904;2024-03-02T08:40:46;7.35;;;1.40;;
11839;SDS011;5979;50.800;4.904;2024-03-02T08:43:12;1.98;;;1.10;;
11839;SDS011;5979;50.800;4.904;2024-03-02T08:45:38;4.45;;;1.45;;
11839;SDS011;5979;50.800;4.904;2024-03-02T08:48:05;1.27;;;1.10;;
11839;SDS011;5979;50.800;4.904;2024-03-02T08:50:33;2.92;;;1.10;;
11839;SDS011;5979;50.800;4.904;2024-03-02T08:52:59;2.85;;;1.20;;
11839;SDS011;5979;50.800;4.904;2024-03-02T08:55:24;2.90;;;1.05;;
11839;SDS011;5979;50.800;4.904;2024-03-02T08:57:50;4.45;;;1.08;;
11839;SDS011;5979;50.800;4.904;2024-03-02T09:00:16;3.58;;;1.08;;
11839;SDS011;5979;50.800;4.904;2024-03-02T09:02:43;3.83;;;1.35;;
11839;SDS011;5979;50.800;4.904;2024-03-02T09:05:09;3.50;;;1.33;;
11839;SDS011;5979;50.800;4.904;2024-03-02T09:07:35;4.22;;;1.67;;
11839;SDS011;5979;50.800;4.904;2024-03-02T09:10:01;3.90;;;1.27;;
11839;SDS011;5979;50.800;4.904;2024-03-02T09:12:26;2.67;;;1.30;;
11839;SDS011;5979;50.800;4.904;2024-03-02T09:14:52;4.63;;;1.52;;
11839;SDS011;5979;50.800;4.904;2024-03-02T09:17:18;1.73;;;1.17;;
11839;SDS011;5979;50.800;4.904;2024-03-02T09:19:43;2.83;;;1.20;;
11839;SDS011;5979;50.800;4.904;2024-03-02T09:22:09;2.50;;;1.13;;
11839;SDS011;5979;50.800;4.904;2024-03-02T09:24:35;1.60;;;1.23;;
11839;SDS011;5979;50.800;4.904;2024-03-02T09:27:00;3.03;;;1.30;;
11839;SDS011;5979;50.800;4.904;2024-03-02T09:29:26;1.20;;;1.00;;
11839;SDS011;5979;50.800;4.904;2024-03-02T09:31:52;3.05;;;1.30;;
11839;SDS011;5979;50.800;4.904;2024-03-02T09:34:17;3.90;;;1.48;;
11839;SDS011;5979;50.800;4.904;2024-03-02T09:36:43;1.17;;;0.85;;
11839;SDS011;5979;50.800;4.904;2024-03-02T09:39:09;2.03;;;1.25;;
11839;SDS011;5979;50.800;4.904;2024-03-02T09:41:38;2.97;;;1.10;;
11839;SDS011;5979;50.800;4.904;2024-03-02T09:44:07;2.88;;;1.42;;
11839;SDS011;5979;50.800;4.904;2024-03-02T09:46:33;2.20;;;1.27;;
11839;SDS011;5979;50.800;4.904;2024-03-02T09:49:00;1.92;;;1.30;;
11839;SDS011;5979;50.800;4.904;2024-03-02T09:51:26;1.13;;;0.90;;
11839;SDS011;5979;50.800;4.904;2024-03-02T09:53:51;1.63;;;1.40;;
11839;SDS011;5979;50.800;4.904;2024-03-02T09:56:18;3.05;;;1.02;;
11839;SDS011;5979;50.800;4.904;2024-03-02T09:58:45;2.78;;;1.00;;
11839;SDS011;5979;50.800;4.904;2024-03-02T10:01:11;1.60;;;1.02;;
11839;SDS011;5979;50.800;4.904;2024-03-02T10:03:37;6.10;;;1.45;;
11839;SDS011;5979;50.800;4.904;2024-03-02T10:08:48;3.63;;;1.30;;
11839;SDS011;5979;50.800;4.904;2024-03-02T10:11:30;3.72;;;2.08;;
11839;SDS011;5979;50.800;4.904;2024-03-02T10:14:07;1.67;;;1.00;;
11839;SDS011;5979;50.800;4.904;2024-03-02T10:16:44;3.60;;;1.42;;
11839;SDS011;5979;50.800;4.904;2024-03-02T10:19:17;2.05;;;0.93;;
11839;SDS011;5979;50.800;4.904;2024-03-02T10:21:44;1.77;;;1.10;;
11839;SDS011;5979;50.800;4.904;2024-03-02T10:24:14;2.58;;;0.80;;
11839;SDS011;5979;50.800;4.904;2024-03-02T10:26:40;1.50;;;0.90;;
11839;SDS011;5979;50.800;4.904;2024-03-02T10:29:07;4.45;;;1.08;;
11839;SDS011;5979;50.800;4.904;2024-03-02T10:31:35;1.85;;;1.15;;
11839;SDS011;5979;50.800;4.904;2024-03-02T10:34:06;4.00;;;1.50;;
11839;SDS011;5979;50.800;4.904;2024-03-02T10:36:35;1.58;;;1.02;;
11839;SDS011;5979;50.800;4.904;2024-03-02T10:39:04;1.33;;;1.05;;
11839;SDS011;5979;50.800;4.904;2024-03-02T10:41:32;2.28;;;0.90;;
11839;SDS011;5979;50.800;4.904;2024-03-02T10:44:02;2.47;;;1.00;;
11839;SDS011;5979;50.800;4.904;2024-03-02T10:46:29;2.33;;;1.00;;
11839;SDS011;5979;50.800;4.904;2024-03-02T10:48:56;1.65;;;1.40;;
11839;SDS011;5979;50.800;4.904;2024-03-02T10:51:24;2.60;;;1.10;;
11839;SDS011;5979;50.800;4.904;2024-03-02T10:53:56;1.35;;;1.02;;
11839;SDS011;5979;50.800;4.904;2024-03-02T10:56:39;1.58;;;1.00;;
11839;SDS011;5979;50.800;4.904;2024-03-02T11:01:57;2.40;;;0.85;;
11839;SDS011;5979;50.800;4.904;2024-03-02T11:04:24;3.22;;;1.27;;
11839;SDS011;5979;50.800;4.904;2024-03-02T11:06:51;2.53;;;1.15;;
11839;SDS011;5979;50.800;4.904;2024-03-02T11:09:22;2.53;;;1.20;;
11839;SDS011;5979;50.800;4.904;2024-03-02T11:12:35;3.45;;;1.20;;
11839;SDS011;5979;50.800;4.904;2024-03-02T11:14:44;5.03;;;1.30;;
11839;SDS011;5979;50.800;4.904;2024-03-02T11:17:10;1.55;;;1.00;;
11839;SDS011;5979;50.800;4.904;2024-03-02T11:19:40;1.38;;;0.95;;
11839;SDS011;5979;50.800;4.904;2024-03-02T11:22:06;2.65;;;1.02;;
11839;SDS011;5979;50.800;4.904;2024-03-02T11:24:34;2.03;;;0.90;;
11839;SDS011;5979;50.800;4.904;2024-03-02T11:27:00;2.53;;;1.33;;
11839;SDS011;5979;50.800;4.904;2024-03-02T11:32:06;4.70;;;1.40;;
11839;SDS011;5979;50.800;4.904;2024-03-02T11:34:49;2.17;;;1.20;;
11839;SDS011;5979;50.800;4.904;2024-03-02T11:37:16;2.78;;;1.20;;
11839;SDS011;5979;50.800;4.904;2024-03-02T11:39:43;1.63;;;0.98;;
11839;SDS011;5979;50.800;4.904;2024-03-02T11:42:10;1.20;;;1.10;;
11839;SDS011;5979;50.800;4.904;2024-03-02T11:44:39;2.85;;;1.10;;
11839;SDS011;5979;50.800;4.904;2024-03-02T11:47:06;2.70;;;1.20;;
11839;SDS011;5979;50.800;4.904;2024-03-02T11:52:06;1.75;;;1.45;;
11839;SDS011;5979;50.800;4.904;2024-03-02T11:54:34;2.47;;;1.45;;
11839;SDS011;5979;50.800;4.904;2024-03-02T11:57:02;3.33;;;1.27;;
11839;SDS011;5979;50.800;4.904;2024-03-02T11:59:31;3.45;;;1.30;;
11839;SDS011;5979;50.800;4.904;2024-03-02T12:01:57;2.13;;;1.23;;
11839;SDS011;5979;50.800;4.904;2024-03-02T12:04:24;1.88;;;1.30;;
11839;SDS011;5979;50.800;4.904;2024-03-02T12:06:57;6.05;;;1.55;;
11839;SDS011;5979;50.800;4.904;2024-03-02T12:09:25;3.33;;;1.55;;
11839;SDS011;5979;50.800;4.904;2024-03-02T12:12:06;3.35;;;1.40;;
11839;SDS011;5979;50.800;4.904;2024-03-02T12:14:34;2.55;;;1.23;;
11839;SDS011;5979;50.800;4.904;2024-03-02T12:17:04;2.70;;;0.98;;
11839;SDS011;5979;50.800;4.904;2024-03-02T12:19:31;2.75;;;0.90;;
11839;SDS011;5979;50.800;4.904;2024-03-02T12:21:57;3.83;;;1.40;;
11839;SDS011;5979;50.800;4.904;2024-03-02T12:24:24;2.75;;;1.10;;
11839;SDS011;5979;50.800;4.904;2024-03-02T12:26:51;1.27;;;1.15;;
11839;SDS011;5979;50.800;4.904;2024-03-02T12:29:18;1.58;;;1.33;;
11839;SDS011;5979;50.800;4.904;2024-03-02T12:31:45;2.40;;;1.10;;
11839;SDS011;5979;50.800;4.904;2024-03-02T12:34:20;1.95;;;1.13;;
11839;SDS011;5979;50.800;4.904;2024-03-02T12:36:47;1.20;;;0.80;;
11839;SDS011;5979;50.800;4.904;2024-03-02T12:39:14;1.73;;;1.35;;
11839;SDS011;5979;50.800;4.904;2024-03-02T12:41:41;1.60;;;0.80;;
11839;SDS011;5979;50.800;4.904;2024-03-02T12:44:07;1.33;;;0.90;;
11839;SDS011;5979;50.800;4.904;2024-03-02T12:46:33;1.20;;;1.10;;
11839;SDS011;5979;50.800;4.904;2024-03-02T12:49:10;2.78;;;1.30;;
11839;SDS011;5979;50.800;4.904;2024-03-02T12:51:40;2.05;;;1.10;;
11839;SDS011;5979;50.800;4.904;2024-03-02T12:54:07;1.52;;;0.98;;
11839;SDS011;5979;50.800;4.904;2024-03-02T12:56:33;2.85;;;1.30;;
11839;SDS011;5979;50.800;4.904;2024-03-02T12:59:00;1.15;;;1.00;;
11839;SDS011;5979;50.800;4.904;2024-03-02T13:01:26;1.67;;;1.17;;
11839;SDS011;5979;50.800;4.904;2024-03-02T13:03:52;1.27;;;1.00;;
11839;SDS011;5979;50.800;4.904;2024-03-02T13:06:20;1.25;;;1.02;;
11839;SDS011;5979;50.800;4.904;2024-03-02T13:08:46;0.80;;;0.80;;
11839;SDS011;5979;50.800;4.904;2024-03-02T13:11:12;2.03;;;0.90;;
11839;SDS011;5979;50.800;4.904;2024-03-02T13:13:39;2.28;;;1.05;;
11839;SDS011;5979;50.800;4.904;2024-03-02T13:16:14;3.22;;;1.05;;
11839;SDS011;5979;50.800;4.904;2024-03-02T13:18:41;1.58;;;0.88;;
11839;SDS011;5979;50.800;4.904;2024-03-02T13:21:07;1.88;;;0.93;;
11839;SDS011;5979;50.800;4.904;2024-03-02T13:23:33;1.00;;;0.90;;
11839;SDS011;5979;50.800;4.904;2024-03-02T13:26:00;1.98;;;1.08;;
11839;SDS011;5979;50.800;4.904;2024-03-02T13:28:26;1.95;;;1.23;;
11839;SDS011;5979;50.800;4.904;2024-03-02T13:30:52;1.08;;;0.90;;
11839;SDS011;5979;50.800;4.904;2024-03-02T13:33:17;1.13;;;0.90;;
11839;SDS011;5979;50.800;4.904;2024-03-02T13:35:49;2.75;;;1.00;;
11839;SDS011;5979;50.800;4.904;2024-03-02T13:38:16;0.68;;;0.68;;
11839;SDS011;5979;50.800;4.904;2024-03-02T13:40:45;1.08;;;0.95;;
11839;SDS011;5979;50.800;4.904;2024-03-02T13:43:16;1.58;;;1.10;;
11839;SDS011;5979;50.800;4.904;2024-03-02T13:45:43;1.92;;;0.88;;
11839;SDS011;5979;50.800;4.904;2024-03-02T13:48:09;1.30;;;1.00;;
11839;SDS011;5979;50.800;4.904;2024-03-02T13:50:34;0.82;;;0.82;;
11839;SDS011;5979;50.800;4.904;2024-03-02T13:53:00;1.02;;;0.85;;
11839;SDS011;5979;50.800;4.904;2024-03-02T13:55:26;1.35;;;0.80;;
11839;SDS011;5979;50.800;4.904;2024-03-02T13:57:51;1.67;;;0.93;;
11839;SDS011;5979;50.800;4.904;2024-03-02T14:00:17;1.00;;;0.80;;
11839;SDS011;5979;50.800;4.904;2024-03-02T14:02:43;0.75;;;0.60;;
11839;SDS011;5979;50.800;4.904;2024-03-02T14:05:10;1.98;;;1.27;;
11839;SDS011;5979;50.800;4.904;2024-03-02T14:07:37;2.22;;;1.60;;
11839;SDS011;5979;50.800;4.904;2024-03-02T14:10:03;1.98;;;1.30;;
11839;SDS011;5979;50.800;4.904;2024-03-02T14:12:29;0.93;;;0.80;;
11839;SDS011;5979;50.800;4.904;2024-03-02T14:14:55;1.10;;;0.95;;
11839;SDS011;5979;50.800;4.904;2024-03-02T14:17:23;0.93;;;0.80;;
11839;SDS011;5979;50.800;4.904;2024-03-02T14:19:52;2.17;;;1.20;;
11839;SDS011;5979;50.800;4.904;2024-03-02T14:22:18;0.85;;;0.80;;
11839;SDS011;5979;50.800;4.904;2024-03-02T14:24:44;1.25;;;1.00;;
11839;SDS011;5979;50.800;4.904;2024-03-02T14:27:11;0.80;;;0.80;;
11839;SDS011;5979;50.800;4.904;2024-03-02T14:29:38;1.13;;;0.77;;
11839;SDS011;5979;50.800;4.904;2024-03-02T14:32:05;1.60;;;0.80;;
11839;SDS011;5979;50.800;4.904;2024-03-02T14:34:31;1.42;;;1.10;;
11839;SDS011;5979;50.800;4.904;2024-03-02T14:36:56;2.40;;;1.25;;
11839;SDS011;5979;50.800;4.904;2024-03-02T14:39:22;2.03;;;0.90;;
11839;SDS011;5979;50.800;4.904;2024-03-02T14:41:48;1.30;;;0.63;;
11839;SDS011;5979;50.800;4.904;2024-03-02T14:44:14;1.83;;;1.00;;
11839;SDS011;5979;50.800;4.904;2024-03-02T14:46:40;1.67;;;0.70;;
11839;SDS011;5979;50.800;4.904;2024-03-02T14:49:06;0.77;;;0.77;;
11839;SDS011;5979;50.800;4.904;2024-03-02T14:51:32;1.20;;;1.10;;
11839;SDS011;5979;50.800;4.904;2024-03-02T14:53:58;0.90;;;0.90;;
11839;SDS011;5979;50.800;4.904;2024-03-02T14:56:23;1.10;;;1.10;;
11839;SDS011;5979;50.800;4.904;2024-03-02T14:58:49;1.40;;;0.82;;
11839;SDS011;5979;50.800;4.904;2024-03-02T15:01:16;0.90;;;0.88;;
11839;SDS011;5979;50.800;4.904;2024-03-02T15:03:42;2.22;;;0.90;;
11839;SDS011;5979;50.800;4.904;2024-03-02T15:06:08;1.05;;;1.00;;
11839;SDS011;5979;50.800;4.904;2024-03-02T15:08:34;2.08;;;1.00;;
11839;SDS011;5979;50.800;4.904;2024-03-02T15:11:00;1.63;;;0.88;;
11839;SDS011;5979;50.800;4.904;2024-03-02T15:13:28;1.27;;;1.00;;